Latest METARs, TAFs and NOTAMs for MMTO


---------------------------------------------------------------------------
	(OBSERVATIONS)
MMTO 291447Z 18005KT 4SM  BKN015 BKN070 BKN200 18/11 A3037  RMK
    SLP155 52019 911 8/832 HZ SC LWR OVR MT=
MMTO 291346Z 11003KT 3SM BR HZ  FEW015 SCT070 BKN200 15/12 A3037
     RMK 8/632=
---------------------------------------------------------------------------
	(TERMINAL AREA FORECAST)
MMTO 291023Z 2912/3018 06004KT 4SM BR BKN015 BKN070 TX21/2921Z
    TN11/2912Z
    TEMPO 2912/2915 2SM BR
    FM291800 03010KT 6SM HZ SCT015 BKN070 BKN200
    BECMG 2921/2923 5SM -RA BKN015CB OVC070 PROB40 2923/3003 3SM
    TSRA
    FM300600 10004KT P6SM SCT015 BKN080 BKN220
    BECMG 3010/3012 12005KT=
---------------------------------------------------------------------------
	(NOTAMS)


MMTO A0572/17 CHANGED NAME OF THE FOLLOWING REPORTING POINTS:
    LIMBO TO TAKUG NOGAL TO LENEG PUBLISHED IN CHART AD-MMTO-LL-1,
    AD-MMTO-LL-4, AD-MMTO-LL-7-RNAV/LL-8-RNAV PUBLISHED IN ANEX
    TO SUP 06/12 DATE 21-SEP-2012 MEXICO AIP. 27 JAN 03:46 2017
    UNTIL PERM. CREATED: 27 JAN 04:02 2017

MMTO A3405/17 RWY 15/33 CLSD. 1600/1700 DAYS MON, 19 JUN 16:00
    2017 UNTIL 31 JUL 17:00 2017. CREATED: 15 JUN 00:24 2017

MMTO A3554/17 RWY 15/33 CLSD. 0430/0900 DAY 01 JUL 0330/1100
    DAY 02 JUL 0430/1030 DAY 03 JUL, 01 JUL 04:30 2017 UNTIL
    03 JUL 10:30 2017. CREATED: 21 JUN 22:12 2017

MMTO A3710/17 RWY 15/33 CLSD. 0430/0900 DAY 8 0300/1100 DAY 9
    0430/1100 DAY 10, 08 JUL 04:30 2017 UNTIL 10 JUL 11:00 2017.
    CREATED: 28 JUN 17:47 2017

---------------------------------------------------------------------------